Mobridge, SD

4:24 AM CDT on April 19, 2015 (GMT -0500)
Mobridge Municipal | | Change Station
CLOSE
Current Station
Airport
Location: Mobridge,
Elevation: 1716 ft
Nearby Weather Stations

Elev 1716 ft 45.55 °N, 100.41 °W | Updated 32 minutes ago

Overcast
Overcast
46 °F
Feels Like 40 °F
N
15
Wind Variable Wind from North
Gusts 26 mph

Today
High -- | Low -- °F
--% Chance of Precip.
Yesterday
High -- | Low -- °F
Precip. -- in
6:49 AM 8:32 PM
New Moon, 1% visible
Pressure 29.86 in
Visibility 10.0 miles
Clouds Scattered Clouds 4600 ft
Overcast 5500 ft
Windchill 40 °F
Dew Point 41 °F
Humidity 83%
Rainfall 0.20 in
Snow Depth Not available.
UV 0 out of 12
Pollen 1.40 out of 12
Air Quality Not available.
Flu Activity Sporadic
METAR KMBG 190852Z AUTO 35013G23KT 10SM SCT046 OVC055 08/05 A2986 RMK AO2 PK WND 34031/0802 SLP112 60007 T00780050 51004

More Conditions Fewer Conditions

Pressure 29.86 in
Visibility 10.0 miles
Clouds Scattered Clouds 4600 ft
Overcast 5500 ft
Windchill 40 °F
Dew Point 41 °F
Humidity 83%
Rainfall 0.20 in
Snow Depth Not available.
UV 0 out of 12
Pollen 1.40 out of 12
Air Quality Not available.
Flu Activity Sporadic
METAR KMBG 190852Z AUTO 35013G23KT 10SM SCT046 OVC055 08/05 A2986 RMK AO2 PK WND 34031/0802 SLP112 60007 T00780050 51004

More Conditions Fewer Conditions

10-Day Weather Forecast

Almanac

Astronomy

Apr. 19, 2015 Rise Set
Actual Time
Civil Twilight
Nautical Twilight
Astronomical Twilight
Moon
Length of Visible Light
Length of Day
Tomorrow will be .
, % of the Moon is Illuminated

Today's Extremes

State Highs State Lows

Community

WunderPhotos

Upload Photos

1,814,753 photos uploaded!

WunderBlogs® & News

Nearby

Air Quality

  Air Quality AQ Index Pollutant
Not available.

Snow Depth

Station Depth Elevation

Earthquake Activity

City Distance Mag. Time & Date
Minimum magnitude displayed is 2.5.

Coastal Water Temperatures

Place Temperature

Stations

Nearby Weather Stations

Station Location Temp. Windchill Dew Point Humidity Wind Precip. Elev Updated Type